sensor_id;sensor_type;location;lat;lon;timestamp;pressure;altitude;pressure_sealevel;temperature;humidity
50364;BME280;36272;59.400;17.982;2023-07-16T00:02:31;100861.25;;;19.95;61.01
50364;BME280;36272;59.400;17.982;2023-07-16T00:07:34;100845.00;;;19.89;61.43
50364;BME280;36272;59.400;17.982;2023-07-16T00:12:36;100844.44;;;19.87;61.26
50364;BME280;36272;59.400;17.982;2023-07-16T00:17:38;100846.09;;;19.83;61.75
50364;BME280;36272;59.400;17.982;2023-07-16T00:22:39;100852.63;;;19.82;61.95
50364;BME280;36272;59.400;17.982;2023-07-16T00:27:41;100832.81;;;19.82;61.98
50364;BME280;36272;59.400;17.982;2023-07-16T00:32:43;100834.44;;;19.83;62.36
50364;BME280;36272;59.400;17.982;2023-07-16T00:37:45;100818.09;;;19.88;62.56
50364;BME280;36272;59.400;17.982;2023-07-16T00:42:46;100812.94;;;19.97;62.76
50364;BME280;36272;59.400;17.982;2023-07-16T00:47:48;100805.22;;;20.09;62.70
50364;BME280;36272;59.400;17.982;2023-07-16T00:52:50;100798.91;;;20.19;62.97
50364;BME280;36272;59.400;17.982;2023-07-16T00:57:57;100770.03;;;20.28;62.96
50364;BME280;36272;59.400;17.982;2023-07-16T01:03:02;100769.69;;;20.35;62.78
50364;BME280;36272;59.400;17.982;2023-07-16T01:08:07;100759.31;;;20.42;62.93
50364;BME280;36272;59.400;17.982;2023-07-16T01:13:10;100767.94;;;20.49;62.98
50364;BME280;36272;59.400;17.982;2023-07-16T01:18:12;100760.81;;;20.54;63.04
50364;BME280;36272;59.400;17.982;2023-07-16T01:23:39;100735.19;;;20.60;63.18
50364;BME280;36272;59.400;17.982;2023-07-16T01:34:06;100747.63;;;20.66;62.44
50364;BME280;36272;59.400;17.982;2023-07-16T01:39:08;100751.41;;;20.70;62.69
50364;BME280;36272;59.400;17.982;2023-07-16T01:44:09;100756.78;;;20.75;62.34
50364;BME280;36272;59.400;17.982;2023-07-16T01:49:11;100766.25;;;20.78;62.21
50364;BME280;36272;59.400;17.982;2023-07-16T01:54:18;100738.81;;;20.79;62.76
50364;BME280;36272;59.400;17.982;2023-07-16T01:59:19;100743.09;;;20.86;62.48
50364;BME280;36272;59.400;17.982;2023-07-16T02:04:22;100753.09;;;20.90;62.32
50364;BME280;36272;59.400;17.982;2023-07-16T02:09:24;100764.19;;;20.94;62.12
50364;BME280;36272;59.400;17.982;2023-07-16T02:14:26;100759.78;;;20.98;62.25
50364;BME280;36272;59.400;17.982;2023-07-16T02:19:28;100757.81;;;21.04;62.21
50364;BME280;36272;59.400;17.982;2023-07-16T02:24:29;100743.84;;;21.10;62.33
50364;BME280;36272;59.400;17.982;2023-07-16T02:29:31;100748.44;;;21.15;61.93
50364;BME280;36272;59.400;17.982;2023-07-16T02:34:33;100728.50;;;21.20;62.07
50364;BME280;36272;59.400;17.982;2023-07-16T02:39:35;100724.38;;;21.22;61.93
50364;BME280;36272;59.400;17.982;2023-07-16T02:44:36;100721.91;;;21.26;62.27
50364;BME280;36272;59.400;17.982;2023-07-16T02:49:43;100708.81;;;21.28;62.27
50364;BME280;36272;59.400;17.982;2023-07-16T02:54:44;100720.72;;;21.32;62.21
50364;BME280;36272;59.400;17.982;2023-07-16T02:59:46;100711.47;;;21.33;62.09
50364;BME280;36272;59.400;17.982;2023-07-16T03:04:48;100718.44;;;21.39;62.17
50364;BME280;36272;59.400;17.982;2023-07-16T03:09:49;100714.31;;;21.42;62.65
50364;BME280;36272;59.400;17.982;2023-07-16T03:14:51;100706.47;;;21.41;64.25
50364;BME280;36272;59.400;17.982;2023-07-16T03:19:55;100704.84;;;21.39;64.22
50364;BME280;36272;59.400;17.982;2023-07-16T03:24:57;100690.34;;;21.44;64.00
50364;BME280;36272;59.400;17.982;2023-07-16T03:29:59;100694.16;;;21.43;64.41
50364;BME280;36272;59.400;17.982;2023-07-16T03:35:00;100697.78;;;21.38;65.07
50364;BME280;36272;59.400;17.982;2023-07-16T03:40:24;100673.47;;;21.28;65.39
50364;BME280;36272;59.400;17.982;2023-07-16T03:45:26;100676.25;;;21.23;66.56
50364;BME280;36272;59.400;17.982;2023-07-16T03:50:33;100662.72;;;21.18;66.66
50364;BME280;36272;59.400;17.982;2023-07-16T03:55:35;100671.53;;;21.09;67.98
50364;BME280;36272;59.400;17.982;2023-07-16T04:00:37;100643.13;;;20.83;69.09
50364;BME280;36272;59.400;17.982;2023-07-16T04:05:39;100616.19;;;20.62;70.95
50364;BME280;36272;59.400;17.982;2023-07-16T04:10:41;100603.03;;;20.50;71.93
50364;BME280;36272;59.400;17.982;2023-07-16T04:15:42;100599.34;;;20.41;72.62
50364;BME280;36272;59.400;17.982;2023-07-16T04:20:44;100576.53;;;20.42;73.94
50364;BME280;36272;59.400;17.982;2023-07-16T04:25:46;100557.16;;;20.48;74.26
50364;BME280;36272;59.400;17.982;2023-07-16T04:30:47;100536.47;;;20.53;73.98
50364;BME280;36272;59.400;17.982;2023-07-16T04:35:49;100535.34;;;20.54;74.32
50364;BME280;36272;59.400;17.982;2023-07-16T04:41:01;100501.88;;;20.58;74.92
50364;BME280;36272;59.400;17.982;2023-07-16T04:46:02;100524.84;;;20.66;74.72
50364;BME280;36272;59.400;17.982;2023-07-16T04:51:04;100518.25;;;20.72;75.45
50364;BME280;36272;59.400;17.982;2023-07-16T04:56:12;100477.94;;;20.79;75.55
50364;BME280;36272;59.400;17.982;2023-07-16T05:01:13;100478.06;;;20.88;75.30
50364;BME280;36272;59.400;17.982;2023-07-16T05:06:15;100483.13;;;20.95;75.15
50364;BME280;36272;59.400;17.982;2023-07-16T05:11:17;100465.00;;;21.04;74.93
50364;BME280;36272;59.400;17.982;2023-07-16T05:16:18;100451.25;;;21.15;74.52
50364;BME280;36272;59.400;17.982;2023-07-16T05:21:20;100412.50;;;21.23;74.55
50364;BME280;36272;59.400;17.982;2023-07-16T05:26:22;100406.25;;;21.36;74.03
50364;BME280;36272;59.400;17.982;2023-07-16T05:31:23;100400.69;;;21.42;73.81
50364;BME280;36272;59.400;17.982;2023-07-16T05:36:25;100383.47;;;21.46;73.65
50364;BME280;36272;59.400;17.982;2023-07-16T05:41:26;100374.22;;;21.47;73.23
50364;BME280;36272;59.400;17.982;2023-07-16T05:46:28;100372.16;;;21.53;73.17
50364;BME280;36272;59.400;17.982;2023-07-16T05:51:30;100374.19;;;21.61;72.82
50364;BME280;36272;59.400;17.982;2023-07-16T05:56:31;100374.38;;;21.79;72.56
50364;BME280;36272;59.400;17.982;2023-07-16T06:01:33;100374.19;;;22.12;72.86
50364;BME280;36272;59.400;17.982;2023-07-16T06:06:34;100364.03;;;22.49;71.38
50364;BME280;36272;59.400;17.982;2023-07-16T06:11:36;100349.59;;;22.80;70.33
50364;BME280;36272;59.400;17.982;2023-07-16T06:16:38;100351.78;;;23.01;68.89
50364;BME280;36272;59.400;17.982;2023-07-16T06:21:39;100335.47;;;23.18;68.04
50364;BME280;36272;59.400;17.982;2023-07-16T06:26:41;100330.91;;;23.45;67.29
50364;BME280;36272;59.400;17.982;2023-07-16T06:32:03;100312.31;;;23.56;66.25
50364;BME280;36272;59.400;17.982;2023-07-16T06:37:05;100308.31;;;23.54;65.87
50364;BME280;36272;59.400;17.982;2023-07-16T06:42:07;100314.41;;;23.51;65.55
50364;BME280;36272;59.400;17.982;2023-07-16T06:47:08;100313.91;;;23.40;65.07
50364;BME280;36272;59.400;17.982;2023-07-16T06:52:19;100311.78;;;23.28;65.39
50364;BME280;36272;59.400;17.982;2023-07-16T06:57:24;100304.72;;;23.27;65.79
50364;BME280;36272;59.400;17.982;2023-07-16T07:02:25;100310.03;;;23.41;64.88
50364;BME280;36272;59.400;17.982;2023-07-16T07:07:27;100318.09;;;23.55;64.46
50364;BME280;36272;59.400;17.982;2023-07-16T07:12:29;100318.88;;;23.64;63.81
50364;BME280;36272;59.400;17.982;2023-07-16T07:17:31;100317.47;;;23.58;63.56
50364;BME280;36272;59.400;17.982;2023-07-16T07:22:32;100309.56;;;23.48;63.67
50364;BME280;36272;59.400;17.982;2023-07-16T07:27:34;100318.53;;;23.39;63.89
50364;BME280;36272;59.400;17.982;2023-07-16T07:32:37;100311.16;;;23.31;64.41
50364;BME280;36272;59.400;17.982;2023-07-16T07:37:39;100346.25;;;23.24;64.26
50364;BME280;36272;59.400;17.982;2023-07-16T07:42:41;100364.19;;;23.16;65.04
50364;BME280;36272;59.400;17.982;2023-07-16T07:47:42;100372.38;;;23.16;64.85
50364;BME280;36272;59.400;17.982;2023-07-16T07:52:44;100344.44;;;23.10;65.25
50364;BME280;36272;59.400;17.982;2023-07-16T07:57:45;100321.03;;;23.09;65.48
50364;BME280;36272;59.400;17.982;2023-07-16T08:02:48;100315.09;;;23.16;65.17
50364;BME280;36272;59.400;17.982;2023-07-16T08:07:50;100310.22;;;23.44;64.78
50364;BME280;36272;59.400;17.982;2023-07-16T08:12:53;100300.44;;;23.70;64.47
50364;BME280;36272;59.400;17.982;2023-07-16T08:17:54;100326.28;;;23.72;64.16
50364;BME280;36272;59.400;17.982;2023-07-16T08:23:00;100352.28;;;23.79;64.35
50364;BME280;36272;59.400;17.982;2023-07-16T08:28:02;100355.81;;;23.70;64.33
50364;BME280;36272;59.400;17.982;2023-07-16T08:33:04;100349.56;;;23.61;64.80
50364;BME280;36272;59.400;17.982;2023-07-16T08:38:06;100327.88;;;23.56;64.91
50364;BME280;36272;59.400;17.982;2023-07-16T08:43:11;100327.41;;;23.54;65.99
50364;BME280;36272;59.400;17.982;2023-07-16T08:48:13;100358.34;;;23.40;66.31
50364;BME280;36272;59.400;17.982;2023-07-16T08:53:16;100349.00;;;23.24;66.82
50364;BME280;36272;59.400;17.982;2023-07-16T08:58:19;100345.22;;;23.02;67.92
50364;BME280;36272;59.400;17.982;2023-07-16T09:03:23;100332.09;;;22.72;68.97
50364;BME280;36272;59.400;17.982;2023-07-16T09:08:25;100335.50;;;22.47;70.41
50364;BME280;36272;59.400;17.982;2023-07-16T09:13:29;100344.22;;;22.12;72.08
50364;BME280;36272;59.400;17.982;2023-07-16T09:18:31;100344.63;;;21.82;74.05
50364;BME280;36272;59.400;17.982;2023-07-16T09:23:34;100349.44;;;21.63;75.04
50364;BME280;36272;59.400;17.982;2023-07-16T09:28:35;100371.78;;;21.46;76.13
50364;BME280;36272;59.400;17.982;2023-07-16T09:33:37;100387.91;;;21.28;77.57
50364;BME280;36272;59.400;17.982;2023-07-16T09:38:40;100352.25;;;21.16;78.65
50364;BME280;36272;59.400;17.982;2023-07-16T09:43:43;100348.22;;;20.99;79.61
50364;BME280;36272;59.400;17.982;2023-07-16T09:48:45;100357.00;;;20.96;80.01
50364;BME280;36272;59.400;17.982;2023-07-16T09:53:47;100469.91;;;20.88;80.79
50364;BME280;36272;59.400;17.982;2023-07-16T09:58:50;100477.63;;;20.62;82.52
50364;BME280;36272;59.400;17.982;2023-07-16T10:03:52;100474.38;;;20.27;84.05
50364;BME280;36272;59.400;17.982;2023-07-16T10:08:54;100483.22;;;20.13;85.22
50364;BME280;36272;59.400;17.982;2023-07-16T10:13:56;100484.69;;;20.05;85.99
50364;BME280;36272;59.400;17.982;2023-07-16T10:18:58;100468.13;;;20.07;86.18
50364;BME280;36272;59.400;17.982;2023-07-16T10:24:02;100467.81;;;20.09;86.71
50364;BME280;36272;59.400;17.982;2023-07-16T10:29:04;100440.88;;;20.12;87.06
50364;BME280;36272;59.400;17.982;2023-07-16T10:34:06;100409.34;;;20.16;87.32
50364;BME280;36272;59.400;17.982;2023-07-16T10:39:09;100411.78;;;20.18;87.68
50364;BME280;36272;59.400;17.982;2023-07-16T10:44:14;100381.03;;;20.23;87.94
50364;BME280;36272;59.400;17.982;2023-07-16T10:49:26;100360.56;;;20.30;88.03
50364;BME280;36272;59.400;17.982;2023-07-16T10:54:28;100387.09;;;20.53;87.79
50364;BME280;36272;59.400;17.982;2023-07-16T10:59:29;100426.03;;;20.62;87.73
50364;BME280;36272;59.400;17.982;2023-07-16T11:04:34;100447.16;;;20.65;88.30
50364;BME280;36272;59.400;17.982;2023-07-16T11:09:43;100428.06;;;20.70;88.44
50364;BME280;36272;59.400;17.982;2023-07-16T11:14:47;100444.53;;;20.79;88.52
50364;BME280;36272;59.400;17.982;2023-07-16T11:19:50;100424.03;;;20.87;88.76
50364;BME280;36272;59.400;17.982;2023-07-16T11:24:53;100442.88;;;20.97;88.98
50364;BME280;36272;59.400;17.982;2023-07-16T11:29:57;100384.78;;;21.07;89.18
50364;BME280;36272;59.400;17.982;2023-07-16T11:35:01;100485.91;;;21.23;89.24
50364;BME280;36272;59.400;17.982;2023-07-16T11:40:05;100491.44;;;21.32;89.51
50364;BME280;36272;59.400;17.982;2023-07-16T11:45:21;100480.59;;;21.88;89.21
50364;BME280;36272;59.400;17.982;2023-07-16T11:50:25;100482.19;;;22.53;87.63
50364;BME280;36272;59.400;17.982;2023-07-16T11:55:27;100478.13;;;22.96;86.54
50364;BME280;36272;59.400;17.982;2023-07-16T12:00:29;100486.38;;;25.27;83.31
50364;BME280;36272;59.400;17.982;2023-07-16T12:05:30;100482.22;;;27.33;75.03
50364;BME280;36272;59.400;17.982;2023-07-16T12:10:37;100487.72;;;28.76;71.29
50364;BME280;36272;59.400;17.982;2023-07-16T12:15:39;100493.78;;;28.00;68.45
50364;BME280;36272;59.400;17.982;2023-07-16T12:20:40;100492.34;;;27.53;68.80
50364;BME280;36272;59.400;17.982;2023-07-16T12:25:42;100508.38;;;26.29;70.72
50364;BME280;36272;59.400;17.982;2023-07-16T12:30:44;100505.63;;;25.39;72.94
50364;BME280;36272;59.400;17.982;2023-07-16T12:35:46;100505.56;;;28.13;68.67
50364;BME280;36272;59.400;17.982;2023-07-16T12:40:53;100492.91;;;30.10;61.79
50364;BME280;36272;59.400;17.982;2023-07-16T12:45:55;100502.13;;;28.86;62.57
50364;BME280;36272;59.400;17.982;2023-07-16T12:50:57;100505.69;;;29.18;62.63
50364;BME280;36272;59.400;17.982;2023-07-16T12:55:58;100498.19;;;31.21;58.94
50364;BME280;36272;59.400;17.982;2023-07-16T13:01:00;100504.97;;;32.69;54.86
50364;BME280;36272;59.400;17.982;2023-07-16T13:06:02;100501.56;;;33.76;51.34
50364;BME280;36272;59.400;17.982;2023-07-16T13:11:05;100513.41;;;34.54;51.07
50364;BME280;36272;59.400;17.982;2023-07-16T13:16:06;100506.78;;;35.06;49.97
50364;BME280;36272;59.400;17.982;2023-07-16T13:21:08;100506.38;;;35.37;48.85
50364;BME280;36272;59.400;17.982;2023-07-16T13:26:10;100506.31;;;34.72;48.63
50364;BME280;36272;59.400;17.982;2023-07-16T13:31:11;100512.25;;;32.50;52.00
50364;BME280;36272;59.400;17.982;2023-07-16T13:36:13;100508.84;;;31.45;53.09
50364;BME280;36272;59.400;17.982;2023-07-16T13:41:14;100508.72;;;30.92;54.70
50364;BME280;36272;59.400;17.982;2023-07-16T13:46:16;100516.94;;;30.49;56.37
50364;BME280;36272;59.400;17.982;2023-07-16T13:51:18;100509.22;;;31.44;54.76
50364;BME280;36272;59.400;17.982;2023-07-16T13:56:19;100518.66;;;31.43;55.02
50364;BME280;36272;59.400;17.982;2023-07-16T14:01:22;100517.00;;;30.52;54.85
50364;BME280;36272;59.400;17.982;2023-07-16T14:06:24;100535.94;;;30.15;57.46
50364;BME280;36272;59.400;17.982;2023-07-16T14:11:35;100523.59;;;30.48;56.70
50364;BME280;36272;59.400;17.982;2023-07-16T14:16:37;100538.69;;;30.54;57.50
50364;BME280;36272;59.400;17.982;2023-07-16T14:21:40;100532.91;;;30.39;56.48
50364;BME280;36272;59.400;17.982;2023-07-16T14:26:42;100542.31;;;30.19;57.79
50364;BME280;36272;59.400;17.982;2023-07-16T14:31:43;100543.69;;;30.29;57.25
50364;BME280;36272;59.400;17.982;2023-07-16T14:36:45;100531.81;;;30.44;56.60
50364;BME280;36272;59.400;17.982;2023-07-16T14:41:51;100513.09;;;30.14;56.70
50364;BME280;36272;59.400;17.982;2023-07-16T14:46:53;100539.13;;;30.17;56.71
50364;BME280;36272;59.400;17.982;2023-07-16T14:52:06;100507.34;;;30.82;55.61
50364;BME280;36272;59.400;17.982;2023-07-16T14:57:07;100535.16;;;30.93;53.98
50364;BME280;36272;59.400;17.982;2023-07-16T15:02:09;100525.38;;;30.76;53.46
50364;BME280;36272;59.400;17.982;2023-07-16T15:07:11;100511.63;;;30.79;52.33
50364;BME280;36272;59.400;17.982;2023-07-16T15:12:12;100525.28;;;30.72;51.73
50364;BME280;36272;59.400;17.982;2023-07-16T15:17:14;100526.16;;;30.37;51.05
50364;BME280;36272;59.400;17.982;2023-07-16T15:22:18;100514.88;;;29.90;52.24
50364;BME280;36272;59.400;17.982;2023-07-16T15:27:23;100522.06;;;29.59;52.67
50364;BME280;36272;59.400;17.982;2023-07-16T15:32:25;100510.47;;;29.86;52.27
50364;BME280;36272;59.400;17.982;2023-07-16T15:37:26;100515.19;;;29.69;51.71
50364;BME280;36272;59.400;17.982;2023-07-16T15:42:28;100510.97;;;29.40;52.05
50364;BME280;36272;59.400;17.982;2023-07-16T15:47:30;100512.69;;;29.00;52.46
50364;BME280;36272;59.400;17.982;2023-07-16T15:52:32;100516.22;;;28.84;53.27
50364;BME280;36272;59.400;17.982;2023-07-16T15:57:34;100507.19;;;28.43;53.90
50364;BME280;36272;59.400;17.982;2023-07-16T16:02:35;100513.69;;;28.22;54.51
50364;BME280;36272;59.400;17.982;2023-07-16T16:07:45;100490.25;;;27.87;54.96
50364;BME280;36272;59.400;17.982;2023-07-16T16:12:47;100511.56;;;27.53;55.57
50364;BME280;36272;59.400;17.982;2023-07-16T16:17:51;100517.22;;;27.23;56.42
50364;BME280;36272;59.400;17.982;2023-07-16T16:22:52;100510.03;;;26.85;57.18
50364;BME280;36272;59.400;17.982;2023-07-16T16:27:54;100511.59;;;26.52;57.56
50364;BME280;36272;59.400;17.982;2023-07-16T16:32:56;100511.94;;;26.30;58.14
50364;BME280;36272;59.400;17.982;2023-07-16T16:37:59;100521.56;;;26.15;58.63
50364;BME280;36272;59.400;17.982;2023-07-16T16:43:02;100522.19;;;26.11;58.51
50364;BME280;36272;59.400;17.982;2023-07-16T16:48:05;100522.00;;;25.87;58.98
50364;BME280;36272;59.400;17.982;2023-07-16T16:53:11;100516.41;;;25.44;59.22
50364;BME280;36272;59.400;17.982;2023-07-16T16:58:13;100538.88;;;25.11;60.30
50364;BME280;36272;59.400;17.982;2023-07-16T17:03:15;100538.59;;;24.86;61.07
50364;BME280;36272;59.400;17.982;2023-07-16T17:08:16;100532.28;;;24.59;61.89
50364;BME280;36272;59.400;17.982;2023-07-16T17:13:24;100520.72;;;24.54;62.17
50364;BME280;36272;59.400;17.982;2023-07-16T17:18:26;100532.78;;;24.44;62.16
50364;BME280;36272;59.400;17.982;2023-07-16T17:23:27;100532.78;;;24.35;62.24
50364;BME280;36272;59.400;17.982;2023-07-16T17:28:29;100537.59;;;24.20;62.44
50364;BME280;36272;59.400;17.982;2023-07-16T17:33:36;100517.31;;;24.04;63.10
50364;BME280;36272;59.400;17.982;2023-07-16T17:38:37;100530.44;;;23.93;63.02
50364;BME280;36272;59.400;17.982;2023-07-16T17:43:39;100542.13;;;23.85;63.00
50364;BME280;36272;59.400;17.982;2023-07-16T17:48:41;100533.09;;;23.75;63.65
50364;BME280;36272;59.400;17.982;2023-07-16T17:53:42;100527.00;;;23.70;63.39
50364;BME280;36272;59.400;17.982;2023-07-16T17:58:44;100523.13;;;23.62;63.36
50364;BME280;36272;59.400;17.982;2023-07-16T18:03:46;100526.78;;;23.57;63.33
50364;BME280;36272;59.400;17.982;2023-07-16T18:08:47;100521.09;;;23.45;63.50
50364;BME280;36272;59.400;17.982;2023-07-16T18:13:49;100533.06;;;23.26;63.62
50364;BME280;36272;59.400;17.982;2023-07-16T18:18:50;100543.66;;;23.05;64.04
50364;BME280;36272;59.400;17.982;2023-07-16T18:23:52;100540.50;;;22.89;64.54
50364;BME280;36272;59.400;17.982;2023-07-16T18:28:54;100548.72;;;22.75;64.67
50364;BME280;36272;59.400;17.982;2023-07-16T18:33:55;100548.25;;;22.59;64.89
50364;BME280;36272;59.400;17.982;2023-07-16T18:38:57;100551.03;;;22.45;65.38
50364;BME280;36272;59.400;17.982;2023-07-16T18:43:59;100548.81;;;22.33;66.05
50364;BME280;36272;59.400;17.982;2023-07-16T18:49:00;100555.78;;;22.25;66.13
50364;BME280;36272;59.400;17.982;2023-07-16T18:54:02;100559.53;;;22.16;66.70
50364;BME280;36272;59.400;17.982;2023-07-16T18:59:04;100559.44;;;22.07;66.75
50364;BME280;36272;59.400;17.982;2023-07-16T19:04:05;100562.88;;;21.98;66.96
50364;BME280;36272;59.400;17.982;2023-07-16T19:09:07;100557.31;;;21.90;67.46
50364;BME280;36272;59.400;17.982;2023-07-16T19:14:14;100536.06;;;21.78;67.75
50364;BME280;36272;59.400;17.982;2023-07-16T19:19:17;100550.38;;;21.69;67.90
50364;BME280;36272;59.400;17.982;2023-07-16T19:24:19;100548.84;;;21.63;68.19
50364;BME280;36272;59.400;17.982;2023-07-16T19:29:20;100556.28;;;21.58;68.62
50364;BME280;36272;59.400;17.982;2023-07-16T19:34:22;100548.91;;;21.58;68.70
50364;BME280;36272;59.400;17.982;2023-07-16T19:39:24;100555.97;;;21.59;68.85
50364;BME280;36272;59.400;17.982;2023-07-16T19:44:26;100567.75;;;21.54;68.99
50364;BME280;36272;59.400;17.982;2023-07-16T19:49:27;100565.91;;;21.50;69.12
50364;BME280;36272;59.400;17.982;2023-07-16T19:54:29;100561.59;;;21.49;69.25
50364;BME280;36272;59.400;17.982;2023-07-16T19:59:31;100568.44;;;21.46;69.30
50364;BME280;36272;59.400;17.982;2023-07-16T20:04:32;100559.34;;;21.37;69.64
50364;BME280;36272;59.400;17.982;2023-07-16T20:09:34;100566.38;;;21.24;69.84
50364;BME280;36272;59.400;17.982;2023-07-16T20:14:36;100570.38;;;21.13;70.21
50364;BME280;36272;59.400;17.982;2023-07-16T20:19:38;100579.78;;;21.01;70.59
50364;BME280;36272;59.400;17.982;2023-07-16T20:24:39;100588.13;;;20.91;70.52
50364;BME280;36272;59.400;17.982;2023-07-16T20:29:41;100580.91;;;20.81;70.78
50364;BME280;36272;59.400;17.982;2023-07-16T20:34:43;100594.31;;;20.72;71.14
50364;BME280;36272;59.400;17.982;2023-07-16T20:39:44;100590.34;;;20.64;71.31
50364;BME280;36272;59.400;17.982;2023-07-16T20:45:18;100578.81;;;20.54;71.52
50364;BME280;36272;59.400;17.982;2023-07-16T20:50:22;100580.06;;;20.42;71.47
50364;BME280;36272;59.400;17.982;2023-07-16T20:55:27;100591.56;;;20.34;71.74
50364;BME280;36272;59.400;17.982;2023-07-16T21:00:29;100604.69;;;20.27;71.52
50364;BME280;36272;59.400;17.982;2023-07-16T21:05:34;100602.03;;;20.21;70.89
50364;BME280;36272;59.400;17.982;2023-07-16T21:10:45;100600.78;;;20.14;70.67
50364;BME280;36272;59.400;17.982;2023-07-16T21:15:47;100620.63;;;20.09;70.71
50364;BME280;36272;59.400;17.982;2023-07-16T21:20:49;100625.63;;;20.02;70.48
50364;BME280;36272;59.400;17.982;2023-07-16T21:25:50;100629.47;;;19.96;70.26
50364;BME280;36272;59.400;17.982;2023-07-16T21:30:52;100642.56;;;19.88;70.00
50364;BME280;36272;59.400;17.982;2023-07-16T21:35:54;100648.00;;;19.83;69.95
50364;BME280;36272;59.400;17.982;2023-07-16T21:40:55;100646.44;;;19.77;69.97
50364;BME280;36272;59.400;17.982;2023-07-16T21:45:57;100646.78;;;19.70;69.97
50364;BME280;36272;59.400;17.982;2023-07-16T21:51:17;100627.59;;;19.61;70.21
50364;BME280;36272;59.400;17.982;2023-07-16T21:56:18;100638.78;;;19.55;70.37
50364;BME280;36272;59.400;17.982;2023-07-16T22:01:20;100646.16;;;19.49;70.42
50364;BME280;36272;59.400;17.982;2023-07-16T22:06:22;100658.13;;;19.43;70.48
50364;BME280;36272;59.400;17.982;2023-07-16T22:11:24;100644.59;;;19.38;70.80
50364;BME280;36272;59.400;17.982;2023-07-16T22:16:26;100660.91;;;19.32;70.88
50364;BME280;36272;59.400;17.982;2023-07-16T22:21:28;100663.94;;;19.26;71.12
50364;BME280;36272;59.400;17.982;2023-07-16T22:26:30;100658.84;;;19.19;71.31
50364;BME280;36272;59.400;17.982;2023-07-16T22:31:34;100667.28;;;19.12;71.62
50364;BME280;36272;59.400;17.982;2023-07-16T22:36:35;100664.59;;;19.07;71.95
50364;BME280;36272;59.400;17.982;2023-07-16T22:41:37;100660.03;;;19.02;71.86
50364;BME280;36272;59.400;17.982;2023-07-16T22:46:39;100655.97;;;19.00;72.43
50364;BME280;36272;59.400;17.982;2023-07-16T22:51:40;100661.16;;;18.96;72.55
50364;BME280;36272;59.400;17.982;2023-07-16T22:56:42;100660.06;;;18.92;72.72
50364;BME280;36272;59.400;17.982;2023-07-16T23:01:44;100658.19;;;18.87;72.59
50364;BME280;36272;59.400;17.982;2023-07-16T23:06:45;100656.31;;;18.83;72.84
50364;BME280;36272;59.400;17.982;2023-07-16T23:11:52;100636.88;;;18.76;73.41
50364;BME280;36272;59.400;17.982;2023-07-16T23:16:54;100648.25;;;18.72;73.35
50364;BME280;36272;59.400;17.982;2023-07-16T23:21:55;100652.59;;;18.68;73.26
50364;BME280;36272;59.400;17.982;2023-07-16T23:26:57;100658.03;;;18.63;73.88
50364;BME280;36272;59.400;17.982;2023-07-16T23:31:59;100666.19;;;18.58;74.11
50364;BME280;36272;59.400;17.982;2023-07-16T23:37:01;100658.63;;;18.55;73.85
50364;BME280;36272;59.400;17.982;2023-07-16T23:42:08;100648.63;;;18.50;74.72
50364;BME280;36272;59.400;17.982;2023-07-16T23:47:09;100668.66;;;18.49;74.60
50364;BME280;36272;59.400;17.982;2023-07-16T23:52:17;100642.94;;;18.47;74.89
50364;BME280;36272;59.400;17.982;2023-07-16T23:57:19;100659.72;;;18.49;74.78
